Portada
METAR-TAF:

METAR-TAF

Aeroports :

Evenes, Noruega

latitud: 68-31N, longitud: 016-41E, altitud: 26 m

Observació

L'informe es va fer fa 23 minuts, a les 07:50 UTC
Vent 2 kt amb direcció variable
Temperatura -4°C
Humitat 74%
Pressió 1024 hPa
Visibilitat 10 km o més
Escasses núvols a una alçada de 1700 ft
Cel ennuvolat a una alçada de 3600 ft

METAR: ENEV 300750Z VRB02KT 9999 FEW017 BKN036 M04/M08 Q1024 RMK WIND 1400FT 25009KT

Hora: 10:13 (08:13 UTC)

Pronòstic

L'informe es va fer fa 3 hores i 13 minuts, a les 05:00 UTC
Pronòstic vàlid del 30 a les 06 UTC al 30 a les 15 UTC
Vent 9 kt del Oest
Visibilitat 10 km o més
Escasses núvols a una alçada de 1200 ft, Cumulus congestus.
Cel ennuvolat a una alçada de 2500 ft
xàfecs de neu
Temporalment
l' 30 a les 06 UTC al 30 a les 09 UTC
Visibilitat: 2000 m
a una alçada de 800 ft
xàfecs de neu

TAF: ENEV 300500Z 3006/3015 28009KT 9999 -SHSN FEW012TCU BKN025 TEMPO 3006/3009 2000 SHSN VV008

Observacions i pronòstics meteorològics de més de 4000 aeroports (METAR i TAF).

Les estacions disponibles són els punts grocs i vermells al mapa.

Posi el ratolí al punt desitjat per veure el nom de l'estació.

Feu clic per veure les observacions i els pronòstics meteorològics.

Per canviar el mapa: feu clic els botons verds amb una creu de color negre per apropar; al botó verd amb un guió per allunyar la imatge; o en les fletxes verdes per a mapes adjacents.


METAR-TAF: